sensor_id;sensor_type;location;lat;lon;timestamp;temperature;humidity
70421;SHT31;57848;51.938;15.520;2023-05-29T00:00:14;14.24;57.91
70421;SHT31;57848;51.938;15.520;2023-05-29T00:02:43;14.21;58.38
70421;SHT31;57848;51.938;15.520;2023-05-29T00:05:13;14.27;58.10
70421;SHT31;57848;51.938;15.520;2023-05-29T00:07:39;14.25;57.98
70421;SHT31;57848;51.938;15.520;2023-05-29T00:10:05;14.16;58.66
70421;SHT31;57848;51.938;15.520;2023-05-29T00:12:31;14.03;58.70
70421;SHT31;57848;51.938;15.520;2023-05-29T00:14:57;13.99;59.17
70421;SHT31;57848;51.938;15.520;2023-05-29T00:17:23;14.10;57.96
70421;SHT31;57848;51.938;15.520;2023-05-29T00:19:48;14.09;58.83
70421;SHT31;57848;51.938;15.520;2023-05-29T00:22:14;14.01;58.65
70421;SHT31;57848;51.938;15.520;2023-05-29T00:24:39;14.13;56.84
70421;SHT31;57848;51.938;15.520;2023-05-29T00:27:05;14.10;57.05
70421;SHT31;57848;51.938;15.520;2023-05-29T00:29:30;14.07;57.52
70421;SHT31;57848;51.938;15.520;2023-05-29T00:31:56;14.10;58.24
70421;SHT31;57848;51.938;15.520;2023-05-29T00:34:22;14.17;55.98
70421;SHT31;57848;51.938;15.520;2023-05-29T00:36:50;14.13;56.32
70421;SHT31;57848;51.938;15.520;2023-05-29T00:39:15;14.16;56.22
70421;SHT31;57848;51.938;15.520;2023-05-29T00:41:40;14.20;56.03
70421;SHT31;57848;51.938;15.520;2023-05-29T00:44:06;14.28;53.57
70421;SHT31;57848;51.938;15.520;2023-05-29T00:46:32;14.48;53.26
70421;SHT31;57848;51.938;15.520;2023-05-29T00:49:01;14.37;53.61
70421;SHT31;57848;51.938;15.520;2023-05-29T00:51:28;14.61;53.50
70421;SHT31;57848;51.938;15.520;2023-05-29T00:53:54;14.51;54.88
70421;SHT31;57848;51.938;15.520;2023-05-29T00:56:21;14.35;53.44
70421;SHT31;57848;51.938;15.520;2023-05-29T00:58:51;14.24;55.75
70421;SHT31;57848;51.938;15.520;2023-05-29T01:01:20;14.09;56.55
70421;SHT31;57848;51.938;15.520;2023-05-29T01:03:47;13.91;56.51
70421;SHT31;57848;51.938;15.520;2023-05-29T01:06:14;13.86;57.65
70421;SHT31;57848;51.938;15.520;2023-05-29T01:08:39;13.79;57.96
70421;SHT31;57848;51.938;15.520;2023-05-29T01:11:11;13.74;58.37
70421;SHT31;57848;51.938;15.520;2023-05-29T01:13:41;13.63;59.02
70421;SHT31;57848;51.938;15.520;2023-05-29T01:16:17;13.51;59.30
70421;SHT31;57848;51.938;15.520;2023-05-29T01:19:05;13.43;59.89
70421;SHT31;57848;51.938;15.520;2023-05-29T01:24:37;13.29;61.14
70421;SHT31;57848;51.938;15.520;2023-05-29T01:27:05;13.19;61.97
70421;SHT31;57848;51.938;15.520;2023-05-29T01:29:34;13.05;62.88
70421;SHT31;57848;51.938;15.520;2023-05-29T01:32:00;13.00;63.09
70421;SHT31;57848;51.938;15.520;2023-05-29T01:34:27;12.88;63.74
70421;SHT31;57848;51.938;15.520;2023-05-29T01:36:52;12.84;63.83
70421;SHT31;57848;51.938;15.520;2023-05-29T01:39:17;12.76;64.05
70421;SHT31;57848;51.938;15.520;2023-05-29T01:41:45;12.79;64.57
70421;SHT31;57848;51.938;15.520;2023-05-29T01:44:11;12.74;64.69
70421;SHT31;57848;51.938;15.520;2023-05-29T01:46:39;12.63;65.08
70421;SHT31;57848;51.938;15.520;2023-05-29T01:49:06;12.64;65.39
70421;SHT31;57848;51.938;15.520;2023-05-29T01:51:33;12.56;65.52
70421;SHT31;57848;51.938;15.520;2023-05-29T01:53:59;12.54;65.96
70421;SHT31;57848;51.938;15.520;2023-05-29T01:56:26;12.42;66.26
70421;SHT31;57848;51.938;15.520;2023-05-29T01:58:54;12.39;66.45
70421;SHT31;57848;51.938;15.520;2023-05-29T02:01:24;12.30;66.78
70421;SHT31;57848;51.938;15.520;2023-05-29T02:03:49;12.26;66.85
70421;SHT31;57848;51.938;15.520;2023-05-29T02:06:16;12.21;67.07
70421;SHT31;57848;51.938;15.520;2023-05-29T02:08:41;12.12;67.42
70421;SHT31;57848;51.938;15.520;2023-05-29T02:11:06;12.21;67.60
70421;SHT31;57848;51.938;15.520;2023-05-29T02:13:32;12.19;67.49
70421;SHT31;57848;51.938;15.520;2023-05-29T02:15:57;12.09;67.84
70421;SHT31;57848;51.938;15.520;2023-05-29T02:18:23;12.06;68.18
70421;SHT31;57848;51.938;15.520;2023-05-29T02:20:48;12.05;68.35
70421;SHT31;57848;51.938;15.520;2023-05-29T02:23:21;12.01;68.66
70421;SHT31;57848;51.938;15.520;2023-05-29T02:25:46;11.99;68.99
70421;SHT31;57848;51.938;15.520;2023-05-29T02:28:11;11.96;69.42
70421;SHT31;57848;51.938;15.520;2023-05-29T02:30:38;11.96;69.57
70421;SHT31;57848;51.938;15.520;2023-05-29T02:33:04;11.92;69.78
70421;SHT31;57848;51.938;15.520;2023-05-29T02:35:32;11.93;69.75
70421;SHT31;57848;51.938;15.520;2023-05-29T02:37:57;11.92;70.16
70421;SHT31;57848;51.938;15.520;2023-05-29T02:40:22;11.92;70.05
70421;SHT31;57848;51.938;15.520;2023-05-29T02:42:49;11.92;70.21
70421;SHT31;57848;51.938;15.520;2023-05-29T02:45:14;11.89;70.34
70421;SHT31;57848;51.938;15.520;2023-05-29T02:47:40;11.86;70.56
70421;SHT31;57848;51.938;15.520;2023-05-29T02:50:05;11.85;70.91
70421;SHT31;57848;51.938;15.520;2023-05-29T02:52:34;11.82;71.09
70421;SHT31;57848;51.938;15.520;2023-05-29T02:55:02;11.86;71.38
70421;SHT31;57848;51.938;15.520;2023-05-29T02:57:28;11.88;71.15
70421;SHT31;57848;51.938;15.520;2023-05-29T02:59:53;11.88;71.34
70421;SHT31;57848;51.938;15.520;2023-05-29T03:02:20;11.88;71.40
70421;SHT31;57848;51.938;15.520;2023-05-29T03:04:45;11.91;71.33
70421;SHT31;57848;51.938;15.520;2023-05-29T03:07:12;11.93;71.36
70421;SHT31;57848;51.938;15.520;2023-05-29T03:09:38;11.95;71.20
70421;SHT31;57848;51.938;15.520;2023-05-29T03:12:03;11.92;71.22
70421;SHT31;57848;51.938;15.520;2023-05-29T03:14:29;11.91;71.37
70421;SHT31;57848;51.938;15.520;2023-05-29T03:16:54;11.99;71.28
70421;SHT31;57848;51.938;15.520;2023-05-29T03:19:20;11.89;71.62
70421;SHT31;57848;51.938;15.520;2023-05-29T03:21:45;11.88;71.82
70421;SHT31;57848;51.938;15.520;2023-05-29T03:24:11;11.84;72.04
70421;SHT31;57848;51.938;15.520;2023-05-29T03:26:39;11.81;72.15
70421;SHT31;57848;51.938;15.520;2023-05-29T03:29:04;11.89;72.03
70421;SHT31;57848;51.938;15.520;2023-05-29T03:31:31;11.88;72.07
70421;SHT31;57848;51.938;15.520;2023-05-29T03:33:58;11.85;72.21
70421;SHT31;57848;51.938;15.520;2023-05-29T03:36:34;11.89;72.15
70421;SHT31;57848;51.938;15.520;2023-05-29T03:39:02;11.86;72.39
70421;SHT31;57848;51.938;15.520;2023-05-29T03:41:28;11.84;72.42
70421;SHT31;57848;51.938;15.520;2023-05-29T03:43:54;11.88;72.36
70421;SHT31;57848;51.938;15.520;2023-05-29T03:46:21;11.88;72.64
70421;SHT31;57848;51.938;15.520;2023-05-29T03:48:47;11.91;72.51
70421;SHT31;57848;51.938;15.520;2023-05-29T03:51:12;11.88;72.76
70421;SHT31;57848;51.938;15.520;2023-05-29T03:53:39;11.89;72.78
70421;SHT31;57848;51.938;15.520;2023-05-29T03:56:04;11.89;73.04
70421;SHT31;57848;51.938;15.520;2023-05-29T03:58:31;11.91;73.17
70421;SHT31;57848;51.938;15.520;2023-05-29T04:00:57;11.88;73.49
70421;SHT31;57848;51.938;15.520;2023-05-29T04:03:23;11.89;73.43
70421;SHT31;57848;51.938;15.520;2023-05-29T04:05:48;11.92;73.47
70421;SHT31;57848;51.938;15.520;2023-05-29T04:08:14;11.96;73.39
70421;SHT31;57848;51.938;15.520;2023-05-29T04:10:39;12.02;73.51
70421;SHT31;57848;51.938;15.520;2023-05-29T04:13:05;12.09;73.46
70421;SHT31;57848;51.938;15.520;2023-05-29T04:15:31;12.09;73.37
70421;SHT31;57848;51.938;15.520;2023-05-29T04:17:58;12.15;73.06
70421;SHT31;57848;51.938;15.520;2023-05-29T04:20:24;12.21;72.88
70421;SHT31;57848;51.938;15.520;2023-05-29T04:22:49;12.25;72.74
70421;SHT31;57848;51.938;15.520;2023-05-29T04:25:14;12.25;72.84
70421;SHT31;57848;51.938;15.520;2023-05-29T04:27:41;12.33;72.74
70421;SHT31;57848;51.938;15.520;2023-05-29T04:30:08;12.40;72.29
70421;SHT31;57848;51.938;15.520;2023-05-29T04:32:38;12.43;72.24
70421;SHT31;57848;51.938;15.520;2023-05-29T04:35:05;12.50;72.22
70421;SHT31;57848;51.938;15.520;2023-05-29T04:37:34;12.53;71.90
70421;SHT31;57848;51.938;15.520;2023-05-29T04:40:08;12.56;72.12
70421;SHT31;57848;51.938;15.520;2023-05-29T04:42:37;12.59;72.06
70421;SHT31;57848;51.938;15.520;2023-05-29T04:45:03;12.61;71.86
70421;SHT31;57848;51.938;15.520;2023-05-29T04:47:32;12.61;71.83
70421;SHT31;57848;51.938;15.520;2023-05-29T04:50:00;12.71;71.33
70421;SHT31;57848;51.938;15.520;2023-05-29T04:52:26;12.76;71.29
70421;SHT31;57848;51.938;15.520;2023-05-29T04:54:52;12.84;71.19
70421;SHT31;57848;51.938;15.520;2023-05-29T04:57:17;12.87;71.37
70421;SHT31;57848;51.938;15.520;2023-05-29T04:59:43;12.95;71.17
70421;SHT31;57848;51.938;15.520;2023-05-29T05:02:08;13.01;71.15
70421;SHT31;57848;51.938;15.520;2023-05-29T05:04:33;13.02;70.96
70421;SHT31;57848;51.938;15.520;2023-05-29T05:06:59;13.10;70.80
70421;SHT31;57848;51.938;15.520;2023-05-29T05:09:24;13.12;70.77
70421;SHT31;57848;51.938;15.520;2023-05-29T05:11:51;13.19;70.48
70421;SHT31;57848;51.938;15.520;2023-05-29T05:14:17;13.22;70.22
70421;SHT31;57848;51.938;15.520;2023-05-29T05:16:42;13.29;70.50
70421;SHT31;57848;51.938;15.520;2023-05-29T05:19:09;13.28;70.21
70421;SHT31;57848;51.938;15.520;2023-05-29T05:21:37;13.35;70.32
70421;SHT31;57848;51.938;15.520;2023-05-29T05:24:03;13.42;69.94
70421;SHT31;57848;51.938;15.520;2023-05-29T05:26:28;13.52;70.05
70421;SHT31;57848;51.938;15.520;2023-05-29T05:28:54;13.51;69.76
70421;SHT31;57848;51.938;15.520;2023-05-29T05:31:21;13.59;69.61
70421;SHT31;57848;51.938;15.520;2023-05-29T05:33:47;13.67;69.54
70421;SHT31;57848;51.938;15.520;2023-05-29T05:36:12;13.80;69.18
70421;SHT31;57848;51.938;15.520;2023-05-29T05:38:39;13.83;69.20
70421;SHT31;57848;51.938;15.520;2023-05-29T05:41:05;13.94;68.92
70421;SHT31;57848;51.938;15.520;2023-05-29T05:43:32;13.96;68.32
70421;SHT31;57848;51.938;15.520;2023-05-29T05:46:17;14.00;68.54
70421;SHT31;57848;51.938;15.520;2023-05-29T05:48:43;14.04;68.69
70421;SHT31;57848;51.938;15.520;2023-05-29T05:51:08;14.11;68.61
70421;SHT31;57848;51.938;15.520;2023-05-29T05:53:34;14.22;67.99
70421;SHT31;57848;51.938;15.520;2023-05-29T05:55:59;14.17;68.30
70421;SHT31;57848;51.938;15.520;2023-05-29T05:58:25;14.31;68.27
70421;SHT31;57848;51.938;15.520;2023-05-29T06:00:50;14.38;67.90
70421;SHT31;57848;51.938;15.520;2023-05-29T06:03:18;14.51;67.26
70421;SHT31;57848;51.938;15.520;2023-05-29T06:05:56;14.51;67.88
70421;SHT31;57848;51.938;15.520;2023-05-29T06:08:22;14.55;67.61
70421;SHT31;57848;51.938;15.520;2023-05-29T06:10:50;14.62;66.73
70421;SHT31;57848;51.938;15.520;2023-05-29T06:13:16;14.68;67.20
70421;SHT31;57848;51.938;15.520;2023-05-29T06:15:47;14.72;66.94
70421;SHT31;57848;51.938;15.520;2023-05-29T06:18:13;14.76;66.77
70421;SHT31;57848;51.938;15.520;2023-05-29T06:20:38;14.83;66.74
70421;SHT31;57848;51.938;15.520;2023-05-29T06:23:04;14.89;66.54
70421;SHT31;57848;51.938;15.520;2023-05-29T06:25:30;14.89;66.62
70421;SHT31;57848;51.938;15.520;2023-05-29T06:27:59;14.93;66.55
70421;SHT31;57848;51.938;15.520;2023-05-29T06:30:26;15.03;66.14
70421;SHT31;57848;51.938;15.520;2023-05-29T06:32:51;15.11;66.30
70421;SHT31;57848;51.938;15.520;2023-05-29T06:35:16;15.16;66.20
70421;SHT31;57848;51.938;15.520;2023-05-29T06:37:42;15.29;66.18
70421;SHT31;57848;51.938;15.520;2023-05-29T06:40:07;15.37;65.49
70421;SHT31;57848;51.938;15.520;2023-05-29T06:42:33;15.37;65.51
70421;SHT31;57848;51.938;15.520;2023-05-29T06:44:58;15.44;65.39
70421;SHT31;57848;51.938;15.520;2023-05-29T06:47:24;15.46;65.45
70421;SHT31;57848;51.938;15.520;2023-05-29T06:49:49;15.57;66.09
70421;SHT31;57848;51.938;15.520;2023-05-29T06:52:15;15.62;65.75
70421;SHT31;57848;51.938;15.520;2023-05-29T06:55:06;15.71;65.28
70421;SHT31;57848;51.938;15.520;2023-05-29T06:57:32;15.74;66.01
70421;SHT31;57848;51.938;15.520;2023-05-29T06:59:58;15.85;65.59
70421;SHT31;57848;51.938;15.520;2023-05-29T07:02:23;15.97;65.00
70421;SHT31;57848;51.938;15.520;2023-05-29T07:04:52;16.06;65.67
70421;SHT31;57848;51.938;15.520;2023-05-29T07:07:18;16.22;64.75
70421;SHT31;57848;51.938;15.520;2023-05-29T07:09:44;16.28;64.91
70421;SHT31;57848;51.938;15.520;2023-05-29T07:12:11;16.32;64.58
70421;SHT31;57848;51.938;15.520;2023-05-29T07:14:36;16.40;64.40
70421;SHT31;57848;51.938;15.520;2023-05-29T07:17:02;16.43;64.57
70421;SHT31;57848;51.938;15.520;2023-05-29T07:19:27;16.55;64.54
70421;SHT31;57848;51.938;15.520;2023-05-29T07:21:53;16.49;64.78
70421;SHT31;57848;51.938;15.520;2023-05-29T07:24:21;16.63;65.39
70421;SHT31;57848;51.938;15.520;2023-05-29T07:26:46;16.67;64.76
70421;SHT31;57848;51.938;15.520;2023-05-29T07:29:11;16.71;64.69
70421;SHT31;57848;51.938;15.520;2023-05-29T07:31:38;16.76;64.82
70421;SHT31;57848;51.938;15.520;2023-05-29T07:34:06;16.85;65.33
70421;SHT31;57848;51.938;15.520;2023-05-29T07:36:31;16.94;65.75
70421;SHT31;57848;51.938;15.520;2023-05-29T07:38:58;17.01;64.64
70421;SHT31;57848;51.938;15.520;2023-05-29T07:41:24;16.97;62.34
70421;SHT31;57848;51.938;15.520;2023-05-29T07:43:52;17.01;62.73
70421;SHT31;57848;51.938;15.520;2023-05-29T07:46:19;17.11;61.45
70421;SHT31;57848;51.938;15.520;2023-05-29T07:48:45;17.14;61.61
70421;SHT31;57848;51.938;15.520;2023-05-29T07:51:11;17.19;62.29
70421;SHT31;57848;51.938;15.520;2023-05-29T07:53:40;17.29;62.03
70421;SHT31;57848;51.938;15.520;2023-05-29T07:56:05;17.39;62.27
70421;SHT31;57848;51.938;15.520;2023-05-29T07:58:31;17.49;61.14
70421;SHT31;57848;51.938;15.520;2023-05-29T08:00:57;17.53;61.48
70421;SHT31;57848;51.938;15.520;2023-05-29T08:03:23;17.65;61.13
70421;SHT31;57848;51.938;15.520;2023-05-29T08:06:11;17.77;59.86
70421;SHT31;57848;51.938;15.520;2023-05-29T08:08:36;17.82;59.72
70421;SHT31;57848;51.938;15.520;2023-05-29T08:11:05;17.85;59.23
70421;SHT31;57848;51.938;15.520;2023-05-29T08:13:31;17.94;59.05
70421;SHT31;57848;51.938;15.520;2023-05-29T08:15:56;18.03;58.44
70421;SHT31;57848;51.938;15.520;2023-05-29T08:18:25;18.10;58.32
70421;SHT31;57848;51.938;15.520;2023-05-29T08:20:51;18.24;56.47
70421;SHT31;57848;51.938;15.520;2023-05-29T08:23:17;18.35;56.16
70421;SHT31;57848;51.938;15.520;2023-05-29T08:25:43;18.48;55.80
70421;SHT31;57848;51.938;15.520;2023-05-29T08:28:08;18.57;55.78
70421;SHT31;57848;51.938;15.520;2023-05-29T08:30:33;18.61;55.15
70421;SHT31;57848;51.938;15.520;2023-05-29T08:32:59;18.69;56.21
70421;SHT31;57848;51.938;15.520;2023-05-29T08:35:24;18.82;57.02
70421;SHT31;57848;51.938;15.520;2023-05-29T08:37:50;18.92;55.88
70421;SHT31;57848;51.938;15.520;2023-05-29T08:40:15;19.05;54.46
70421;SHT31;57848;51.938;15.520;2023-05-29T08:42:47;19.03;55.14
70421;SHT31;57848;51.938;15.520;2023-05-29T08:45:13;19.06;54.71
70421;SHT31;57848;51.938;15.520;2023-05-29T08:47:40;19.00;54.70
70421;SHT31;57848;51.938;15.520;2023-05-29T08:50:06;19.09;54.90
70421;SHT31;57848;51.938;15.520;2023-05-29T08:52:34;19.20;54.06
70421;SHT31;57848;51.938;15.520;2023-05-29T08:55:02;19.24;53.85
70421;SHT31;57848;51.938;15.520;2023-05-29T08:57:29;19.26;54.05
70421;SHT31;57848;51.938;15.520;2023-05-29T08:59:55;19.23;53.51
70421;SHT31;57848;51.938;15.520;2023-05-29T09:02:21;19.22;54.48
70421;SHT31;57848;51.938;15.520;2023-05-29T09:04:47;19.31;53.70
70421;SHT31;57848;51.938;15.520;2023-05-29T09:07:18;19.40;53.21
70421;SHT31;57848;51.938;15.520;2023-05-29T09:09:47;19.51;53.55
70421;SHT31;57848;51.938;15.520;2023-05-29T09:12:13;19.54;52.23
70421;SHT31;57848;51.938;15.520;2023-05-29T09:14:41;19.71;53.67
70421;SHT31;57848;51.938;15.520;2023-05-29T09:17:08;19.74;53.58
70421;SHT31;57848;51.938;15.520;2023-05-29T09:19:34;19.82;52.58
70421;SHT31;57848;51.938;15.520;2023-05-29T09:22:05;19.82;52.80
70421;SHT31;57848;51.938;15.520;2023-05-29T09:24:35;19.89;52.54
70421;SHT31;57848;51.938;15.520;2023-05-29T09:27:02;20.01;52.33
70421;SHT31;57848;51.938;15.520;2023-05-29T09:29:32;20.09;52.44
70421;SHT31;57848;51.938;15.520;2023-05-29T09:31:58;20.26;52.72
70421;SHT31;57848;51.938;15.520;2023-05-29T09:34:26;20.52;52.57
70421;SHT31;57848;51.938;15.520;2023-05-29T09:36:53;20.60;51.57
70421;SHT31;57848;51.938;15.520;2023-05-29T09:39:27;20.81;50.27
70421;SHT31;57848;51.938;15.520;2023-05-29T09:41:53;20.70;49.85
70421;SHT31;57848;51.938;15.520;2023-05-29T09:44:19;20.69;49.46
70421;SHT31;57848;51.938;15.520;2023-05-29T09:46:48;20.81;49.90
70421;SHT31;57848;51.938;15.520;2023-05-29T09:49:14;20.97;50.48
70421;SHT31;57848;51.938;15.520;2023-05-29T09:51:41;21.10;49.60
70421;SHT31;57848;51.938;15.520;2023-05-29T09:54:17;21.25;49.19
70421;SHT31;57848;51.938;15.520;2023-05-29T09:56:43;21.38;48.46
70421;SHT31;57848;51.938;15.520;2023-05-29T09:59:14;21.24;47.28
70421;SHT31;57848;51.938;15.520;2023-05-29T10:01:41;21.39;47.72
70421;SHT31;57848;51.938;15.520;2023-05-29T10:04:08;21.62;45.74
70421;SHT31;57848;51.938;15.520;2023-05-29T10:06:36;21.75;45.31
70421;SHT31;57848;51.938;15.520;2023-05-29T10:09:02;21.88;44.76
70421;SHT31;57848;51.938;15.520;2023-05-29T10:11:31;21.93;45.34
70421;SHT31;57848;51.938;15.520;2023-05-29T10:13:57;22.16;44.54
70421;SHT31;57848;51.938;15.520;2023-05-29T10:16:24;22.16;44.11
70421;SHT31;57848;51.938;15.520;2023-05-29T10:18:56;22.18;45.12
70421;SHT31;57848;51.938;15.520;2023-05-29T10:21:25;22.31;45.45
70421;SHT31;57848;51.938;15.520;2023-05-29T10:23:53;22.74;42.98
70421;SHT31;57848;51.938;15.520;2023-05-29T10:26:22;22.79;42.93
70421;SHT31;57848;51.938;15.520;2023-05-29T10:34:14;22.17;44.96
70421;SHT31;57848;51.938;15.520;2023-05-29T10:37:00;23.91;41.45
70421;SHT31;57848;51.938;15.520;2023-05-29T10:39:27;24.42;40.39
70421;SHT31;57848;51.938;15.520;2023-05-29T10:41:53;23.81;42.32
70421;SHT31;57848;51.938;15.520;2023-05-29T10:47:05;25.96;38.73
70421;SHT31;57848;51.938;15.520;2023-05-29T10:49:30;25.64;38.85
70421;SHT31;57848;51.938;15.520;2023-05-29T10:51:57;25.34;39.61
70421;SHT31;57848;51.938;15.520;2023-05-29T10:54:25;24.82;40.76
70421;SHT31;57848;51.938;15.520;2023-05-29T10:57:17;24.41;41.22
70421;SHT31;57848;51.938;15.520;2023-05-29T10:59:44;23.74;41.46
70421;SHT31;57848;51.938;15.520;2023-05-29T11:02:10;23.16;42.58
70421;SHT31;57848;51.938;15.520;2023-05-29T11:04:35;22.99;43.38
70421;SHT31;57848;51.938;15.520;2023-05-29T11:07:02;23.32;42.70
70421;SHT31;57848;51.938;15.520;2023-05-29T11:09:36;25.03;39.92
70421;SHT31;57848;51.938;15.520;2023-05-29T11:12:13;26.48;36.56
70421;SHT31;57848;51.938;15.520;2023-05-29T11:15:03;28.01;35.29
70421;SHT31;57848;51.938;15.520;2023-05-29T11:17:29;29.19;32.85
70421;SHT31;57848;51.938;15.520;2023-05-29T11:19:56;30.11;32.77
70421;SHT31;57848;51.938;15.520;2023-05-29T11:22:27;28.86;34.00
70421;SHT31;57848;51.938;15.520;2023-05-29T11:24:57;27.38;35.27
70421;SHT31;57848;51.938;15.520;2023-05-29T11:27:25;26.19;36.71
70421;SHT31;57848;51.938;15.520;2023-05-29T11:29:50;27.83;34.76
70421;SHT31;57848;51.938;15.520;2023-05-29T11:32:21;27.26;34.91
70421;SHT31;57848;51.938;15.520;2023-05-29T11:34:47;27.90;35.91
70421;SHT31;57848;51.938;15.520;2023-05-29T11:37:14;29.50;33.31
70421;SHT31;57848;51.938;15.520;2023-05-29T11:39:39;28.96;33.34
70421;SHT31;57848;51.938;15.520;2023-05-29T11:42:07;28.38;34.49
70421;SHT31;57848;51.938;15.520;2023-05-29T11:44:33;29.07;33.18
70421;SHT31;57848;51.938;15.520;2023-05-29T11:49:30;28.80;33.01
70421;SHT31;57848;51.938;15.520;2023-05-29T11:52:12;27.92;34.14
70421;SHT31;57848;51.938;15.520;2023-05-29T11:54:37;29.20;33.37
70421;SHT31;57848;51.938;15.520;2023-05-29T11:57:03;30.62;31.43
70421;SHT31;57848;51.938;15.520;2023-05-29T11:59:33;31.04;30.37
70421;SHT31;57848;51.938;15.520;2023-05-29T12:02:02;31.32;29.81
70421;SHT31;57848;51.938;15.520;2023-05-29T12:04:28;30.87;30.39
70421;SHT31;57848;51.938;15.520;2023-05-29T12:06:53;29.78;31.39
70421;SHT31;57848;51.938;15.520;2023-05-29T12:09:28;28.43;34.00
70421;SHT31;57848;51.938;15.520;2023-05-29T12:12:01;27.66;34.57
70421;SHT31;57848;51.938;15.520;2023-05-29T12:14:26;26.54;35.80
70421;SHT31;57848;51.938;15.520;2023-05-29T12:16:51;26.17;35.97
70421;SHT31;57848;51.938;15.520;2023-05-29T12:19:17;26.09;37.14
70421;SHT31;57848;51.938;15.520;2023-05-29T12:21:42;25.54;36.97
70421;SHT31;57848;51.938;15.520;2023-05-29T12:24:11;25.23;38.74
70421;SHT31;57848;51.938;15.520;2023-05-29T12:26:36;24.94;39.69
70421;SHT31;57848;51.938;15.520;2023-05-29T12:29:03;25.30;38.44
70421;SHT31;57848;51.938;15.520;2023-05-29T12:31:30;25.24;38.79
70421;SHT31;57848;51.938;15.520;2023-05-29T12:34:00;24.80;37.91
70421;SHT31;57848;51.938;15.520;2023-05-29T12:36:26;25.34;37.97
70421;SHT31;57848;51.938;15.520;2023-05-29T12:38:52;25.49;37.28
70421;SHT31;57848;51.938;15.520;2023-05-29T12:41:27;25.84;37.21
70421;SHT31;57848;51.938;15.520;2023-05-29T12:43:57;25.40;36.97
70421;SHT31;57848;51.938;15.520;2023-05-29T12:46:23;25.92;37.43
70421;SHT31;57848;51.938;15.520;2023-05-29T12:48:49;26.68;36.74
70421;SHT31;57848;51.938;15.520;2023-05-29T12:51:17;26.60;36.09
70421;SHT31;57848;51.938;15.520;2023-05-29T12:53:42;26.13;36.34
70421;SHT31;57848;51.938;15.520;2023-05-29T12:56:08;25.68;38.04
70421;SHT31;57848;51.938;15.520;2023-05-29T12:58:33;25.55;38.22
70421;SHT31;57848;51.938;15.520;2023-05-29T13:00:59;26.00;36.89
70421;SHT31;57848;51.938;15.520;2023-05-29T13:03:25;25.88;36.85
70421;SHT31;57848;51.938;15.520;2023-05-29T13:05:51;25.51;37.69
70421;SHT31;57848;51.938;15.520;2023-05-29T13:08:16;26.02;36.36
70421;SHT31;57848;51.938;15.520;2023-05-29T13:10:43;27.73;34.48
70421;SHT31;57848;51.938;15.520;2023-05-29T13:13:08;28.71;33.41
70421;SHT31;57848;51.938;15.520;2023-05-29T13:15:35;29.80;30.31
70421;SHT31;57848;51.938;15.520;2023-05-29T13:18:00;30.63;29.39
70421;SHT31;57848;51.938;15.520;2023-05-29T13:20:26;30.69;29.45
70421;SHT31;57848;51.938;15.520;2023-05-29T13:22:51;29.09;31.17
70421;SHT31;57848;51.938;15.520;2023-05-29T13:25:19;27.92;33.46
70421;SHT31;57848;51.938;15.520;2023-05-29T13:27:49;26.80;34.20
70421;SHT31;57848;51.938;15.520;2023-05-29T13:30:16;27.82;33.89
70421;SHT31;57848;51.938;15.520;2023-05-29T13:32:42;28.49;32.55
70421;SHT31;57848;51.938;15.520;2023-05-29T13:35:07;28.37;32.07
70421;SHT31;57848;51.938;15.520;2023-05-29T13:37:33;27.71;32.99
70421;SHT31;57848;51.938;15.520;2023-05-29T13:39:59;26.76;33.97
70421;SHT31;57848;51.938;15.520;2023-05-29T13:42:24;26.60;34.96
70421;SHT31;57848;51.938;15.520;2023-05-29T13:44:51;26.23;35.34
70421;SHT31;57848;51.938;15.520;2023-05-29T13:47:16;25.69;35.27
70421;SHT31;57848;51.938;15.520;2023-05-29T13:49:42;25.40;36.25
70421;SHT31;57848;51.938;15.520;2023-05-29T13:52:07;24.79;37.25
70421;SHT31;57848;51.938;15.520;2023-05-29T13:54:33;24.72;37.51
70421;SHT31;57848;51.938;15.520;2023-05-29T13:57:06;24.79;37.69
70421;SHT31;57848;51.938;15.520;2023-05-29T13:59:32;25.54;36.35
70421;SHT31;57848;51.938;15.520;2023-05-29T14:01:58;25.03;36.51
70421;SHT31;57848;51.938;15.520;2023-05-29T14:04:24;24.60;37.04
70421;SHT31;57848;51.938;15.520;2023-05-29T14:06:51;24.25;37.78
70421;SHT31;57848;51.938;15.520;2023-05-29T14:09:18;24.19;37.77
70421;SHT31;57848;51.938;15.520;2023-05-29T14:11:52;24.15;38.49
70421;SHT31;57848;51.938;15.520;2023-05-29T14:14:17;24.00;38.60
70421;SHT31;57848;51.938;15.520;2023-05-29T14:16:42;23.67;38.65
70421;SHT31;57848;51.938;15.520;2023-05-29T14:19:08;23.59;39.72
70421;SHT31;57848;51.938;15.520;2023-05-29T14:21:33;23.57;38.96
70421;SHT31;57848;51.938;15.520;2023-05-29T14:23:58;23.67;39.13
70421;SHT31;57848;51.938;15.520;2023-05-29T14:26:24;23.85;39.06
70421;SHT31;57848;51.938;15.520;2023-05-29T14:28:49;23.81;38.38
70421;SHT31;57848;51.938;15.520;2023-05-29T14:31:14;23.75;38.43
70421;SHT31;57848;51.938;15.520;2023-05-29T14:33:40;24.01;38.54
70421;SHT31;57848;51.938;15.520;2023-05-29T14:36:06;24.24;38.33
70421;SHT31;57848;51.938;15.520;2023-05-29T14:38:31;24.33;37.64
70421;SHT31;57848;51.938;15.520;2023-05-29T14:40:56;24.33;38.11
70421;SHT31;57848;51.938;15.520;2023-05-29T14:43:22;24.22;37.50
70421;SHT31;57848;51.938;15.520;2023-05-29T14:45:47;24.31;36.53
70421;SHT31;57848;51.938;15.520;2023-05-29T14:48:12;24.47;37.06
70421;SHT31;57848;51.938;15.520;2023-05-29T14:50:38;24.47;35.33
70421;SHT31;57848;51.938;15.520;2023-05-29T14:53:03;24.99;36.49
70421;SHT31;57848;51.938;15.520;2023-05-29T14:55:29;24.96;36.39
70421;SHT31;57848;51.938;15.520;2023-05-29T14:57:56;24.99;35.27
70421;SHT31;57848;51.938;15.520;2023-05-29T15:00:21;24.59;35.55
70421;SHT31;57848;51.938;15.520;2023-05-29T15:02:46;24.26;36.53
70421;SHT31;57848;51.938;15.520;2023-05-29T15:05:12;23.66;37.92
70421;SHT31;57848;51.938;15.520;2023-05-29T15:07:37;23.71;38.22
70421;SHT31;57848;51.938;15.520;2023-05-29T15:10:03;23.80;38.83
70421;SHT31;57848;51.938;15.520;2023-05-29T15:12:29;23.66;38.05
70421;SHT31;57848;51.938;15.520;2023-05-29T15:14:55;23.39;38.14
70421;SHT31;57848;51.938;15.520;2023-05-29T15:17:20;23.16;38.50
70421;SHT31;57848;51.938;15.520;2023-05-29T15:19:46;23.09;39.00
70421;SHT31;57848;51.938;15.520;2023-05-29T15:22:11;23.12;39.35
70421;SHT31;57848;51.938;15.520;2023-05-29T15:24:36;23.20;37.86
70421;SHT31;57848;51.938;15.520;2023-05-29T15:27:02;23.15;38.72